LFTW

Nîmes-Arles-Camargue Airport

Airport
ICAO code
LFTW
IATA Code
FNI
Summary
ICAO Region
EUR
ICAO Territory
Location

, Languedoc-Roussillon

Serving
Nimes
Elevation
309 ft
Coordinates
43° 45' 27" N , 4° 24' 59" E
Metar
LFTW 142100Z AUTO 13013KT 9999 OVC007 19/17 Q1013

Runways

Designator Length Width Surface Rops
18/36 2440 45 CON Yes/Yes

Airport map

Aerial View

SKYbrary Partners:

Safety knowledge contributed by: